Stations météo

réclame
Mon MeteoGroup
Lecce, Italie (16333): Température de l'air & dewpoint: 15.02.2018 12:00:00 - 21.02.2018 12:00:00 (CET)Lecce, Italie (16333): Vitesse du vent: 15.02.2018 12:00:00 - 21.02.2018 12:00:00 (CET)Lecce, Italie (16333): Direction du vent: 15.02.2018 12:00:00 - 21.02.2018 12:00:00 (CET)Lecce, Italie (16333): reduced air pressure: 15.02.2018 12:00:00 - 21.02.2018 12:00:00 (CET)Lecce, Italie (16333): Quantités de précipitations: 15.02.2018 12:00:00 - 21.02.2018 12:00:00 (CET)
Date & Time tt [°C] td [°C] ff [km/h] ff [knt] dd ppp [hPa] rr [mm]
21.02.2018 12:00:00 - - - - - - -
21.02.2018 11:00:00 10,4 9,5 - - - 1001,7 -
21.02.2018 10:00:00 9,9 9,0 11 6 SE 1001,6 -
21.02.2018 09:00:00 11,0 10,2 15 8 ESE 1001,3 -
21.02.2018 08:00:00 10,3 9,5 15 8 ESE 1001,1 -
21.02.2018 07:00:00 9,8 9,0 13 7 SE 1000,6 -
21.02.2018 06:00:00 10,2 9,4 16 9 SSE 1000,7 -
21.02.2018 05:00:00 9,7 8,9 4 2 ENE 1000,6 -
21.02.2018 04:00:00 9,6 8,8 8 4 ESE 1001,2 -
21.02.2018 03:00:00 8,8 8,0 9 5 SE 1001,8 -
21.02.2018 02:00:00 8,4 7,6 11 6 ESE 1002,1 -
21.02.2018 01:00:00 7,9 7,0 4 2 ESE 1002,5 0,0
21.02.2018 00:00:00 8,3 7,5 0 0 N 1002,6 -
20.02.2018 23:00:00 9,6 8,8 0 0 N 1002,6 -
20.02.2018 22:00:00 9,9 9,1 0 0 N 1002,8 -
20.02.2018 21:00:00 9,6 8,7 8 4 SE 1002,9 -
20.02.2018 20:00:00 9,6 8,7 4 2 SSE 1003,2 -
20.02.2018 19:00:00 10,1 9,2 0 0 N 1003,5 -
20.02.2018 18:00:00 10,4 9,3 4 2 NNE 1003,8 -
20.02.2018 17:00:00 11,1 10,0 5 3 ENE 1004,1 -
20.02.2018 16:00:00 11,3 10,0 13 7 N 1004,3 -
20.02.2018 15:00:00 11,6 10,3 15 8 NE 1004,8 -
20.02.2018 14:00:00 12,1 10,8 9 5 NNE 1005,4 -
20.02.2018 13:00:00 12,1 11,0 11 6 NNE 1006,1 -
20.02.2018 12:00:00 11,4 10,8 11 6 N 1006,9 -
20.02.2018 11:00:00 10,8 10,2 4 2 NE 1007,5 -
20.02.2018 10:00:00 10,2 9,6 5 3 ENE 1007,7 -
20.02.2018 09:00:00 9,5 8,9 8 4 N 1007,8 -
20.02.2018 08:00:00 8,8 8,2 9 5 NNW 1007,9 -
20.02.2018 07:00:00 8,6 7,8 9 5 WNW 1008,5 -
20.02.2018 06:00:00 8,5 7,7 0 0 N 1008,3 -
20.02.2018 05:00:00 9,0 8,2 5 3 NNE 1008,3 -
20.02.2018 04:00:00 8,2 7,4 2 1 NE 1008,5 -
20.02.2018 03:00:00 6,8 5,9 2 1 E 1009,2 -
20.02.2018 02:00:00 7,0 6,1 0 0 N 1009,7 -
20.02.2018 01:00:00 6,8 5,9 0 0 N 1009,8 -
20.02.2018 00:00:00 7,0 6,1 0 0 N 1010,1 -
19.02.2018 23:00:00 7,6 6,7 0 0 N 1010,4 -
19.02.2018 22:00:00 7,3 6,2 0 0 N 1010,9 -
19.02.2018 21:00:00 8,1 7,0 0 0 N 1010,9 -
19.02.2018 20:00:00 9,4 8,3 0 0 N 1010,7 -
19.02.2018 19:00:00 9,7 8,4 0 0 N 1010,9 -
19.02.2018 18:00:00 10,2 8,8 2 1 SE 1010,9 -
19.02.2018 17:00:00 11,2 9,8 5 3 ENE 1010,9 -
19.02.2018 16:00:00 11,5 10,6 11 6 NE 1010,7 -
19.02.2018 15:00:00 11,3 10,5 13 7 NNE 1010,7 -
19.02.2018 14:00:00 11,1 10,0 18 10 N 1011,1 -
19.02.2018 13:00:00 11,4 10,3 15 8 NNE 1011,4 -
19.02.2018 12:00:00 11,4 10,5 13 7 N 1011,9 -
19.02.2018 11:00:00 11,2 10,4 13 7 NNE 1012,4 -
19.02.2018 10:00:00 10,9 10,3 8 4 NNE 1012,4 -
19.02.2018 09:00:00 10,8 10,2 8 4 N 1012,5 -
19.02.2018 08:00:00 10,3 9,7 8 4 N 1012,5 -
19.02.2018 07:00:00 10,2 9,4 9 5 N 1012,2 -
19.02.2018 06:00:00 10,3 9,5 11 6 NNE 1012,0 -
19.02.2018 05:00:00 10,6 9,8 8 4 NNW 1012,2 -
19.02.2018 04:00:00 11,0 10,2 5 3 ESE 1012,0 -
19.02.2018 03:00:00 11,1 10,3 2 1 E 1012,3 -
19.02.2018 02:00:00 10,8 10,0 8 4 SE 1012,9 -
19.02.2018 01:00:00 10,9 10,1 9 5 SE 1013,1 0,0
19.02.2018 00:00:00 11,3 10,4 9 5 SSE 1013,6 -
18.02.2018 23:00:00 11,6 10,7 13 7 SE 1013,8 -
18.02.2018 22:00:00 11,7 10,8 13 7 ESE 1014,0 -
18.02.2018 21:00:00 11,5 10,4 11 6 ESE 1014,4 -
18.02.2018 20:00:00 11,6 10,3 8 4 ESE 1014,4 -
18.02.2018 19:00:00 12,1 10,7 13 7 SE 1014,7 0,0
18.02.2018 18:00:00 12,6 10,8 13 7 SSE 1014,7 -
18.02.2018 17:00:00 13,7 10,8 22 12 SSE 1014,6 -
18.02.2018 16:00:00 14,3 10,9 28 15 S 1014,8 -
18.02.2018 15:00:00 14,7 11,1 29 16 S 1015,1 -
18.02.2018 14:00:00 15,0 11,2 35 19 S 1015,3 -
18.02.2018 13:00:00 15,0 9,9 44 24 S 1015,7 0,0
18.02.2018 12:00:00 14,6 11,2 37 20 S 1016,4 -
18.02.2018 11:00:00 14,1 11,8 41 22 SSE 1016,7 -
18.02.2018 10:00:00 13,2 12,1 21 11 SSE 1017,0 -
18.02.2018 09:00:00 11,2 10,4 13 7 SE 1017,2 -
18.02.2018 08:00:00 9,3 8,5 13 7 SE 1017,7 -
18.02.2018 07:00:00 8,8 7,9 13 7 SE 1017,5 -
18.02.2018 06:00:00 8,7 7,8 13 7 SE 1017,6 -
18.02.2018 05:00:00 8,6 7,7 15 8 SE 1017,8 -
18.02.2018 04:00:00 8,2 7,3 11 6 E 1018,2 -
18.02.2018 03:00:00 8,4 7,5 9 5 ESE 1018,6 -
18.02.2018 02:00:00 8,0 7,1 9 5 SE 1019,2 -
18.02.2018 01:00:00 7,8 6,9 9 5 SE 1019,7 0,0
18.02.2018 00:00:00 7,2 6,1 11 6 SE 1020,0 -
17.02.2018 23:00:00 7,2 6,1 8 4 SE 1020,4 -
17.02.2018 22:00:00 8,0 6,9 5 3 E 1020,5 -
17.02.2018 21:00:00 8,3 7,1 4 2 E 1020,6 -
17.02.2018 20:00:00 8,9 7,3 2 1 SE 1020,7 -
17.02.2018 19:00:00 10,6 8,7 2 1 S 1020,7 0,0
17.02.2018 18:00:00 12,0 9,5 0 0 N 1020,5 -
17.02.2018 17:00:00 13,0 9,4 2 1 WSW 1020,3 -
17.02.2018 16:00:00 14,4 10,0 18 10 WSW 1020,3 -
17.02.2018 15:00:00 15,8 8,9 0 0 N 1020,2 -
17.02.2018 14:00:00 15,2 9,7 2 1 E 1020,6 -
17.02.2018 13:00:00 14,7 9,7 4 2 W 1021,3 0,0
17.02.2018 12:00:00 13,8 10,4 5 3 NW 1022,2 -
17.02.2018 11:00:00 12,5 11,5 11 6 N 1023,0 -
17.02.2018 10:00:00 10,1 9,5 15 8 NW 1023,4 -
17.02.2018 09:00:00 7,8 7,0 9 5 NW 1023,6 -
17.02.2018 08:00:00 2,6 1,6 4 2 W 1023,8 -
17.02.2018 07:00:00 1,4 0,4 0 0 N 1023,7 0,0
17.02.2018 06:00:00 1,8 0,8 0 0 N 1023,6 -
17.02.2018 05:00:00 1,7 0,7 0 0 N 1023,8 -
17.02.2018 04:00:00 2,1 1,1 4 2 NW 1023,7 -
17.02.2018 03:00:00 2,4 1,4 2 1 NW 1023,8 -
17.02.2018 02:00:00 2,6 1,6 4 2 NW 1024,0 -
17.02.2018 01:00:00 3,0 1,8 9 5 NW 1024,0 0,0
17.02.2018 00:00:00 2,5 1,3 4 2 WNW 1024,1 -
16.02.2018 23:00:00 2,5 1,2 0 0 N 1024,0 -
16.02.2018 22:00:00 4,4 3,2 0 0 N 1023,8 -
16.02.2018 21:00:00 5,3 3,9 4 2 WNW 1023,8 -
16.02.2018 20:00:00 5,4 3,2 5 3 WNW 1023,8 -
16.02.2018 19:00:00 7,4 4,1 0 0 N 1023,8 0,0
16.02.2018 18:00:00 8,7 4,3 9 5 N 1023,5 -
16.02.2018 17:00:00 10,4 5,7 22 12 N 1022,9 -
16.02.2018 16:00:00 11,5 4,9 35 19 N 1022,8 -
16.02.2018 15:00:00 11,8 5,4 42 23 N 1022,8 -
16.02.2018 14:00:00 12,2 5,5 39 21 NW 1022,7 -
16.02.2018 13:00:00 12,0 6,6 35 19 N 1022,8 0,0
16.02.2018 12:00:00 11,5 6,2 39 21 N 1023,3 -
16.02.2018 11:00:00 11,0 5,9 35 19 NNW 1023,2 -
16.02.2018 10:00:00 10,7 4,5 41 22 N 1022,6 -
16.02.2018 09:00:00 8,4 6,2 22 12 NNW 1022,4 -
16.02.2018 08:00:00 5,7 4,5 21 11 WNW 1022,5 -
16.02.2018 07:00:00 4,1 2,7 16 9 NW 1021,8 0,0
16.02.2018 06:00:00 4,1 2,7 21 11 WNW 1021,2 -
16.02.2018 05:00:00 4,3 2,1 16 9 NW 1020,9 -
16.02.2018 04:00:00 6,1 2,9 18 10 NNW 1020,3 -
16.02.2018 03:00:00 5,5 1,7 18 10 NW 1020,3 -
16.02.2018 02:00:00 6,2 1,7 22 12 NNW 1020,1 -
16.02.2018 01:00:00 7,0 2,2 26 14 NW 1019,6 0,0
16.02.2018 00:00:00 7,1 2,1 28 15 NW 1019,5 -
15.02.2018 23:00:00 6,1 2,1 24 13 NW 1019,3 -
15.02.2018 22:00:00 6,2 1,5 24 13 NNW 1018,8 -
15.02.2018 21:00:00 6,8 1,4 29 16 NNW 1018,4 -
15.02.2018 20:00:00 7,1 0,7 31 17 NNW 1017,9 -
15.02.2018 19:00:00 7,1 0,7 37 20 NNW 1017,5 -
15.02.2018 18:00:00 7,4 0,7 41 22 NNW 1016,8 -
15.02.2018 17:00:00 8,5 0,1 50 27 NNW 1016,1 -
15.02.2018 16:00:00 8,9 0,5 57 31 NNW 1015,5 -
15.02.2018 15:00:00 9,4 2,2 52 28 NNW 1014,7 -
15.02.2018 14:00:00 8,8 2,1 57 31 NW 1014,4 -
15.02.2018 13:00:00 9,7 3,1 52 28 N 1014,0 -
15.02.2018 12:00:00 9,7 3,6 52 28 N 1013,9 -

tt = Température de l'air
td = dewpoint
ff = Vitesse du vent
dd = Direction du vent
ppp = reduced air pressure
rr = Quantités de précipitations

stations d'obs. à proximité